Time;durP1;ratioP1;P1;durP2;ratioP2;P2;SDS_P1;SDS_P2;PMS_P1;PMS_P2;Temp;Humidity;BMP_temperature;BMP_pressure;BME280_temperature;BME280_humidity;BME280_pressure;Samples;Min_cycle;Max_cycle;Signal;HPM_P1;HPM_P2
2021/08/30 00:01:41;;;;;;;6.17;5.57;;;14.70;99.90;;;;;;6281829;22;20179;-64
2021/08/30 00:04:07;;;;;;;6.90;6.30;;;14.40;99.90;;;;;;6306231;22;20172;-64
2021/08/30 00:06:33;;;;;;;7.60;6.80;;;15.30;99.90;;;;;;6307364;22;20508;-64
2021/08/30 00:08:58;;;;;;;6.50;5.90;;;14.60;99.90;;;;;;6307069;22;20692;-65
2021/08/30 00:11:24;;;;;;;6.77;6.00;;;14.60;99.90;;;;;;6304421;22;20658;-65
2021/08/30 00:13:49;;;;;;;6.20;5.70;;;14.60;99.90;;;;;;6276757;22;20522;-65
2021/08/30 00:16:15;;;;;;;7.13;6.53;;;14.60;99.90;;;;;;6249552;22;20185;-64
2021/08/30 00:18:41;;;;;;;6.73;6.07;;;14.60;99.90;;;;;;6276019;22;20175;-64
2021/08/30 00:21:06;;;;;;;7.30;6.60;;;14.60;99.90;;;;;;6275232;22;20152;-65
2021/08/30 00:23:32;;;;;;;6.87;6.27;;;14.60;99.90;;;;;;6274807;22;20237;-65
2021/08/30 00:25:59;;;;;;;6.80;6.20;;;14.40;99.90;;;;;;6274806;22;20595;-65
2021/08/30 00:28:25;;;;;;;6.60;5.97;;;14.40;99.90;;;;;;6273080;22;20166;-64
2021/08/30 00:30:50;;;;;;;6.80;6.20;;;14.40;99.90;;;;;;6274757;22;20171;-65
2021/08/30 00:33:16;;;;;;;6.73;6.10;;;14.50;99.90;;;;;;6274815;22;20172;-65
2021/08/30 00:35:41;;;;;;;7.60;6.90;;;14.50;99.90;;;;;;6274585;22;20168;-65
2021/08/30 00:38:07;;;;;;;7.70;7.00;;;14.60;99.90;;;;;;6274825;22;20221;-65
2021/08/30 00:40:37;;;;;;;6.93;6.33;;;14.60;99.90;;;;;;6274328;22;20160;-65
2021/08/30 00:43:03;;;;;;;8.10;7.30;;;14.50;99.90;;;;;;6274815;22;20234;-65
2021/08/30 00:45:29;;;;;;;7.70;7.00;;;14.30;99.90;;;;;;6274572;22;20202;-65
2021/08/30 00:47:55;;;;;;;7.87;7.10;;;14.30;99.90;;;;;;6274693;22;20145;-65
2021/08/30 00:50:21;;;;;;;8.43;7.60;;;14.40;99.90;;;;;;6274846;22;20209;-65
2021/08/30 00:52:48;;;;;;;8.27;7.57;;;14.60;99.90;;;;;;6274336;22;20279;-65
2021/08/30 00:55:15;;;;;;;9.00;8.20;;;14.60;99.90;;;;;;6275143;22;20155;-65
2021/08/30 00:57:40;;;;;;;7.80;7.10;;;14.40;99.90;;;;;;6274553;22;20203;-66
2021/08/30 01:00:08;;;;;;;8.20;7.43;;;14.50;99.90;;;;;;6274441;22;20597;-65
2021/08/30 01:02:34;;;;;;;8.50;7.70;;;14.50;99.90;;;;;;6274086;22;20575;-65
2021/08/30 01:05:00;;;;;;;8.23;7.43;;;14.60;99.90;;;;;;6274600;22;20174;-65
2021/08/30 01:07:37;;;;;;;7.87;7.17;;;14.60;99.90;;;;;;6274394;22;20146;-66
2021/08/30 01:10:23;;;;;;;8.10;7.40;;;14.70;99.90;;;;;;6274097;22;20147;-64
2021/08/30 01:13:37;;;;;;;8.10;7.30;;;14.70;99.90;;;;;;6274470;22;20286;-65
2021/08/30 01:16:04;;;;;;;7.57;6.77;;;14.80;99.90;;;;;;6268235;22;20487;-65
2021/08/30 01:18:32;;;;;;;8.53;7.17;;;14.80;99.90;;;;;;6274028;22;20161;-64
2021/08/30 01:21:16;;;;;;;7.50;6.80;;;14.80;99.90;;;;;;6274746;22;20201;-64
2021/08/30 01:23:45;;;;;;;8.00;7.30;;;14.80;99.90;;;;;;6274339;22;20134;-65
2021/08/30 01:26:14;;;;;;;7.27;6.67;;;14.80;99.90;;;;;;6274274;22;20159;-65
2021/08/30 01:29:22;;;;;;;7.50;6.80;;;14.80;99.90;;;;;;6272905;22;20149;-64
2021/08/30 01:31:54;;;;;;;7.33;6.63;;;14.90;99.90;;;;;;6211241;22;20523;-64
2021/08/30 01:34:21;;;;;;;7.07;6.40;;;14.90;99.90;;;;;;6274370;22;20522;-65
2021/08/30 01:36:48;;;;;;;7.60;6.90;;;14.80;99.90;;;;;;6274145;22;20157;-64
2021/08/30 01:39:14;;;;;;;7.37;6.77;;;14.90;99.90;;;;;;6273970;22;20160;-65
2021/08/30 01:41:40;;;;;;;7.07;6.47;;;14.90;99.90;;;;;;6274144;22;20187;-64
2021/08/30 01:44:07;;;;;;;7.17;6.47;;;14.90;99.90;;;;;;6274096;22;20621;-65
2021/08/30 01:46:35;;;;;;;8.33;7.53;;;15.00;99.90;;;;;;6274339;22;20229;-65
2021/08/30 01:49:02;;;;;;;7.03;6.43;;;14.90;99.90;;;;;;6246749;22;20152;-64
2021/08/30 01:51:28;;;;;;;7.83;7.13;;;14.80;99.90;;;;;;6274236;22;20484;-64
2021/08/30 01:53:55;;;;;;;8.13;7.33;;;14.80;99.90;;;;;;6274271;22;20274;-64
2021/08/30 01:56:22;;;;;;;7.83;7.13;;;14.70;99.90;;;;;;6274170;22;20150;-65
2021/08/30 02:01:34;;;;;;;7.93;7.13;;;14.80;99.90;;;;;;6273698;22;20179;-65
2021/08/30 02:04:00;;;;;;;7.80;7.00;;;14.80;99.90;;;;;;6274488;22;20173;-65
2021/08/30 02:06:26;;;;;;;7.90;7.10;;;14.90;99.90;;;;;;6273914;22;20599;-65
2021/08/30 02:08:54;;;;;;;7.60;6.90;;;14.90;99.90;;;;;;6273886;22;20144;-64
2021/08/30 02:11:25;;;;;;;7.30;6.60;;;14.80;99.90;;;;;;6273883;22;20144;-64
2021/08/30 02:13:51;;;;;;;7.97;7.17;;;14.80;99.90;;;;;;6274071;22;20195;-65
2021/08/30 02:16:17;;;;;;;8.00;7.20;;;14.70;99.90;;;;;;6274083;22;20191;-64
2021/08/30 02:18:54;;;;;;;7.73;6.80;;;14.70;99.90;;;;;;6273604;22;20279;-64
2021/08/30 02:21:43;;;;;;;7.47;6.83;;;14.80;99.90;;;;;;6273658;22;20140;-65
2021/08/30 02:24:19;;;;;;;8.10;7.40;;;14.80;99.90;;;;;;6273819;22;20492;-65
2021/08/30 02:26:52;;;;;;;7.60;6.90;;;14.70;99.90;;;;;;6270853;22;20134;-65
2021/08/30 02:29:22;;;;;;;7.93;7.23;;;14.70;99.90;;;;;;6273608;22;20587;-65
2021/08/30 02:31:51;;;;;;;7.20;6.60;;;14.40;99.90;;;;;;6273981;22;20507;-64
2021/08/30 02:34:20;;;;;;;7.93;7.20;;;14.40;99.90;;;;;;6273398;22;20196;-65
2021/08/30 02:36:47;;;;;;;8.03;7.30;;;14.40;99.90;;;;;;6273465;22;20149;-64
2021/08/30 02:39:13;;;;;;;7.73;7.03;;;14.40;99.90;;;;;;6273282;22;20239;-65
2021/08/30 02:41:40;;;;;;;8.00;7.30;;;14.50;99.90;;;;;;6273611;22;20219;-65
2021/08/30 02:44:05;;;;;;;7.73;7.03;;;14.60;99.90;;;;;;6273289;22;20165;-65
2021/08/30 02:46:32;;;;;;;8.20;7.40;;;14.70;99.90;;;;;;6273613;22;20142;-65
2021/08/30 02:48:58;;;;;;;8.23;7.43;;;14.80;99.90;;;;;;6273451;22;20137;-65
2021/08/30 02:51:25;;;;;;;7.17;6.57;;;14.80;99.90;;;;;;6274055;22;20199;-64
2021/08/30 02:53:52;;;;;;;6.23;5.70;;;14.70;99.90;;;;;;6273430;22;20156;-64
2021/08/30 02:56:19;;;;;;;5.63;5.13;;;14.70;99.90;;;;;;6273528;22;20627;-64
2021/08/30 02:58:45;;;;;;;6.70;6.10;;;14.50;99.90;;;;;;6273110;22;20152;-64
2021/08/30 03:01:11;;;;;;;6.33;5.73;;;14.30;99.90;;;;;;6273142;22;20146;-64
2021/08/30 03:03:38;;;;;;;6.60;6.00;;;14.30;99.90;;;;;;6272870;22;20611;-64
2021/08/30 03:06:04;;;;;;;5.83;5.23;;;14.20;99.90;;;;;;6273390;22;20138;-64
2021/08/30 03:08:30;;;;;;;7.83;6.07;;;14.30;99.90;;;;;;6273251;22;20251;-65
2021/08/30 03:10:58;;;;;;;6.80;6.20;;;14.30;99.90;;;;;;6273219;22;20173;-64
2021/08/30 03:13:23;;;;;;;6.80;6.10;;;14.20;99.90;;;;;;6273444;22;20175;-65
2021/08/30 03:15:50;;;;;;;6.17;5.57;;;14.20;99.90;;;;;;6273376;22;20153;-64
2021/08/30 03:18:17;;;;;;;6.47;5.87;;;14.10;99.90;;;;;;6273348;22;20148;-65
2021/08/30 03:20:44;;;;;;;5.83;5.33;;;13.90;99.90;;;;;;6272949;22;20154;-65
2021/08/30 03:23:10;;;;;;;6.03;5.53;;;14.00;99.90;;;;;;6273253;22;20172;-64
2021/08/30 03:25:37;;;;;;;5.03;4.63;;;14.50;99.90;;;;;;6273193;22;20254;-64
2021/08/30 03:28:06;;;;;;;5.60;5.10;;;14.00;99.90;;;;;;6273024;22;20148;-65
2021/08/30 03:30:33;;;;;;;5.53;5.03;;;14.00;99.90;;;;;;6245933;22;20236;-65
2021/08/30 03:33:00;;;;;;;5.60;5.10;;;14.00;99.90;;;;;;6272757;22;20188;-65
2021/08/30 03:35:27;;;;;;;5.07;4.67;;;13.80;99.90;;;;;;6273466;22;20150;-65
2021/08/30 03:37:54;;;;;;;5.43;4.97;;;13.70;99.90;;;;;;6273251;22;20153;-65
2021/08/30 03:40:21;;;;;;;5.50;5.00;;;13.60;99.90;;;;;;6273185;22;20151;-65
2021/08/30 03:42:48;;;;;;;5.03;4.63;;;13.70;99.90;;;;;;6273171;22;20583;-65
2021/08/30 03:45:14;;;;;;;5.83;4.73;;;13.80;99.90;;;;;;6273192;22;20204;-65
2021/08/30 03:47:41;;;;;;;5.10;4.70;;;14.00;99.90;;;;;;6273472;22;20246;-65
2021/08/30 03:50:09;;;;;;;5.23;4.47;;;14.10;99.90;;;;;;6272980;22;20147;-65
2021/08/30 03:52:37;;;;;;;4.83;4.43;;;14.10;99.90;;;;;;6272811;22;20225;-65
2021/08/30 03:55:03;;;;;;;5.93;5.33;;;14.20;99.90;;;;;;6273356;22;20481;-65
2021/08/30 03:57:29;;;;;;;7.33;6.57;;;14.00;99.90;;;;;;6274961;22;20150;-65
2021/08/30 03:59:58;;;;;;;5.77;5.23;;;13.90;99.90;;;;;;6274774;22;20181;-65
2021/08/30 04:02:27;;;;;;;5.37;4.80;;;13.90;99.90;;;;;;6274972;22;20243;-65
2021/08/30 04:04:54;;;;;;;5.20;4.70;;;13.80;99.90;;;;;;6247951;22;20217;-65
2021/08/30 04:07:22;;;;;;;4.47;4.13;;;13.90;99.90;;;;;;6275546;22;20178;-65
2021/08/30 04:09:51;;;;;;;5.07;4.60;;;14.00;99.90;;;;;;6275115;22;20146;-65
2021/08/30 04:12:20;;;;;;;4.90;4.30;;;14.10;99.90;;;;;;6274856;22;20166;-65
2021/08/30 04:14:47;;;;;;;4.30;3.90;;;14.10;99.90;;;;;;6223476;22;20164;-65
2021/08/30 04:17:12;;;;;;;4.77;4.40;;;14.00;99.90;;;;;;6275174;22;20229;-64
2021/08/30 04:19:38;;;;;;;4.53;4.13;;;13.90;99.90;;;;;;6274442;22;20188;-65
2021/08/30 04:22:04;;;;;;;4.60;4.20;;;13.70;99.90;;;;;;6222627;22;20179;-65
2021/08/30 04:24:30;;;;;;;5.13;4.63;;;13.60;99.90;;;;;;6247707;22;20220;-64
2021/08/30 04:26:55;;;;;;;5.27;4.87;;;13.50;99.90;;;;;;6222416;22;20147;-64
2021/08/30 04:29:21;;;;;;;5.37;4.77;;;13.40;99.90;;;;;;6247552;22;20147;-65
2021/08/30 04:31:47;;;;;;;4.80;4.27;;;13.50;99.90;;;;;;6274649;22;20170;-65
2021/08/30 04:34:12;;;;;;;4.80;4.40;;;13.50;99.90;;;;;;6274784;22;20150;-65
2021/08/30 04:36:38;;;;;;;4.57;4.17;;;13.50;99.90;;;;;;6274672;22;20487;-65
2021/08/30 04:39:04;;;;;;;4.63;3.90;;;13.60;99.90;;;;;;6247642;22;20154;-66
2021/08/30 04:41:30;;;;;;;4.70;4.30;;;13.80;99.90;;;;;;6274540;22;20688;-65
2021/08/30 04:43:55;;;;;;;4.37;3.97;;;13.80;99.90;;;;;;6247503;22;20202;-65
2021/08/30 04:46:21;;;;;;;4.47;4.07;;;13.90;99.90;;;;;;6274566;22;20488;-65
2021/08/30 04:48:47;;;;;;;4.03;3.73;;;13.90;99.90;;;;;;6272769;22;20200;-65
2021/08/30 04:51:13;;;;;;;4.10;3.80;;;14.00;99.90;;;;;;6274825;22;20462;-64
2021/08/30 04:53:38;;;;;;;4.50;4.10;;;13.90;99.90;;;;;;6274592;22;20148;-64
2021/08/30 04:56:04;;;;;;;4.47;4.10;;;14.00;99.90;;;;;;6274673;22;20160;-64
2021/08/30 04:58:30;;;;;;;4.30;3.90;;;13.90;99.90;;;;;;6273917;22;20142;-65
2021/08/30 05:00:55;;;;;;;3.90;3.60;;;14.00;99.90;;;;;;6274659;22;20150;-64
2021/08/30 05:03:21;;;;;;;3.83;3.53;;;14.00;99.90;;;;;;6274403;22;20186;-65
2021/08/30 05:05:47;;;;;;;4.10;3.80;;;13.90;99.90;;;;;;6274767;22;20614;-65
2021/08/30 05:08:12;;;;;;;4.63;4.03;;;14.00;99.90;;;;;;6274341;22;20133;-64
2021/08/30 05:10:38;;;;;;;4.00;3.70;;;13.80;99.90;;;;;;6274682;22;20149;-65
2021/08/30 05:13:03;;;;;;;4.30;4.00;;;13.90;99.90;;;;;;6274281;22;20176;-65
2021/08/30 05:15:29;;;;;;;4.77;4.37;;;14.00;99.90;;;;;;6274920;22;20200;-65
2021/08/30 05:17:54;;;;;;;3.97;3.67;;;14.00;99.90;;;;;;6274926;22;20167;-65
2021/08/30 05:20:20;;;;;;;4.10;3.77;;;14.40;99.90;;;;;;6274269;22;20225;-65
2021/08/30 05:22:46;;;;;;;4.30;4.00;;;14.40;99.90;;;;;;6274839;22;20208;-65
2021/08/30 05:25:13;;;;;;;4.93;3.50;;;14.40;99.90;;;;;;6274252;22;20175;-65
2021/08/30 05:27:39;;;;;;;3.43;3.20;;;14.30;99.90;;;;;;6274296;22;20224;-65
2021/08/30 05:30:05;;;;;;;3.60;3.30;;;14.40;99.90;;;;;;6273823;22;20600;-64
2021/08/30 05:32:32;;;;;;;4.37;3.57;;;14.30;99.90;;;;;;6274199;22;20217;-64
2021/08/30 05:34:57;;;;;;;4.00;3.70;;;14.10;99.90;;;;;;6273207;22;20150;-65
2021/08/30 05:37:23;;;;;;;3.73;3.43;;;14.20;99.90;;;;;;6274253;22;20661;-65
2021/08/30 05:39:49;;;;;;;3.70;3.40;;;14.20;99.90;;;;;;6273706;22;20159;-65
2021/08/30 05:42:14;;;;;;;3.00;2.80;;;14.10;99.90;;;;;;6274163;22;20636;-65
2021/08/30 05:44:40;;;;;;;3.83;3.27;;;14.20;99.90;;;;;;6274078;22;20173;-65
2021/08/30 05:47:05;;;;;;;2.97;2.77;;;14.10;99.90;;;;;;6274000;22;20153;-65
2021/08/30 05:49:31;;;;;;;4.37;4.07;;;14.10;99.90;;;;;;6274009;22;20148;-65
2021/08/30 05:51:56;;;;;;;4.27;3.97;;;14.10;99.90;;;;;;6273986;22;20171;-65
2021/08/30 05:54:22;;;;;;;3.50;3.30;;;14.10;99.90;;;;;;6274300;22;20151;-65
2021/08/30 05:56:47;;;;;;;3.80;3.50;;;14.10;99.90;;;;;;6273869;22;20154;-65
2021/08/30 05:59:13;;;;;;;3.97;3.67;;;14.20;99.90;;;;;;6273740;22;20188;-65
2021/08/30 06:01:41;;;;;;;3.43;3.20;;;14.40;99.90;;;;;;6273654;22;20176;-65
2021/08/30 06:04:06;;;;;;;4.13;3.73;;;14.40;99.90;;;;;;6275890;22;20169;-65
2021/08/30 06:06:32;;;;;;;3.50;3.20;;;14.40;99.90;;;;;;6273980;22;20146;-65
2021/08/30 06:08:57;;;;;;;3.20;2.90;;;14.30;99.90;;;;;;6273789;22;20156;-64
2021/08/30 06:11:23;;;;;;;3.17;2.87;;;14.20;99.90;;;;;;6273852;22;20214;-64
2021/08/30 06:13:49;;;;;;;2.90;2.70;;;14.70;99.90;;;;;;6274006;22;20721;-65
2021/08/30 06:16:14;;;;;;;2.60;2.40;;;14.40;99.90;;;;;;6274063;22;20147;-65
2021/08/30 06:18:40;;;;;;;3.27;2.20;;;14.40;99.90;;;;;;6273403;22;20147;-65
2021/08/30 06:21:05;;;;;;;2.20;2.00;;;14.20;99.90;;;;;;6274022;22;20655;-65
2021/08/30 06:23:32;;;;;;;1.77;1.67;;;14.10;99.90;;;;;;6273663;22;20246;-64
2021/08/30 06:25:59;;;;;;;1.70;1.60;;;14.00;99.90;;;;;;6274162;22;20187;-65
2021/08/30 06:28:25;;;;;;;1.50;1.40;;;14.10;99.90;;;;;;6273422;22;20152;-60
2021/08/30 06:30:51;;;;;;;1.60;1.50;;;14.20;99.90;;;;;;6273958;22;20170;-65
2021/08/30 06:33:16;;;;;;;1.30;1.20;;;14.90;99.90;;;;;;6273999;22;20650;-65
2021/08/30 06:35:43;;;;;;;1.50;1.40;;;14.40;99.90;;;;;;6273728;22;20146;-65
2021/08/30 06:38:12;;;;;;;1.37;1.27;;;14.40;99.90;;;;;;6274030;22;20150;-65
2021/08/30 06:40:38;;;;;;;1.60;1.50;;;14.50;99.90;;;;;;6273402;22;20491;-65
2021/08/30 06:43:04;;;;;;;1.00;1.00;;;14.30;99.90;;;;;;6273953;22;20207;-64
2021/08/30 06:45:30;;;;;;;1.43;0.90;;;14.40;99.90;;;;;;6273560;22;20177;-64
2021/08/30 06:47:56;;;;;;;1.40;0.93;;;14.10;99.90;;;;;;6273696;22;20171;-65
2021/08/30 06:50:23;;;;;;;0.90;0.90;;;14.10;99.90;;;;;;6273648;22;20157;-64
2021/08/30 06:52:50;;;;;;;0.90;0.90;;;14.20;99.90;;;;;;6273977;22;20489;-65
2021/08/30 06:55:15;;;;;;;1.90;0.83;;;14.20;99.90;;;;;;6273447;22;20151;-65
2021/08/30 06:57:41;;;;;;;1.10;1.00;;;14.10;99.90;;;;;;6273625;22;20160;-65
2021/08/30 07:00:08;;;;;;;1.20;1.00;;;14.20;99.90;;;;;;6273608;22;20200;-64
2021/08/30 07:02:34;;;;;;;0.67;0.67;;;14.30;99.90;;;;;;6273461;22;20650;-65
2021/08/30 07:05:00;;;;;;;0.80;0.80;;;14.30;99.90;;;;;;6273408;22;20654;-65
2021/08/30 07:07:25;;;;;;;0.90;0.90;;;14.10;99.90;;;;;;6273674;22;20152;-65
2021/08/30 07:09:51;;;;;;;1.20;0.90;;;14.20;99.90;;;;;;6273107;22;20616;-65
2021/08/30 07:12:16;;;;;;;0.80;0.80;;;14.20;99.90;;;;;;6273409;22;20499;-64
2021/08/30 07:14:42;;;;;;;2.33;1.40;;;14.40;99.90;;;;;;6273595;22;20155;-64
2021/08/30 07:17:07;;;;;;;0.83;0.83;;;14.60;99.90;;;;;;6273481;22;20181;-64
2021/08/30 07:19:35;;;;;;;1.40;1.30;;;14.80;99.90;;;;;;6273443;22;20161;-65
2021/08/30 07:22:00;;;;;;;1.20;1.20;;;15.00;99.90;;;;;;6272459;22;20174;-65
2021/08/30 07:24:26;;;;;;;1.63;1.30;;;15.00;99.90;;;;;;6273207;22;20248;-65
2021/08/30 07:26:51;;;;;;;1.10;1.00;;;15.00;99.90;;;;;;6273409;22;20146;-65
2021/08/30 07:29:17;;;;;;;0.80;0.80;;;14.70;99.90;;;;;;6273168;22;20146;-65
2021/08/30 07:31:42;;;;;;;0.50;0.50;;;14.50;99.90;;;;;;6275125;22;20224;-64
2021/08/30 07:34:08;;;;;;;1.03;0.80;;;14.50;99.90;;;;;;6275519;22;20154;-65
2021/08/30 07:36:34;;;;;;;0.60;0.60;;;14.50;99.90;;;;;;6275643;22;20191;-65
2021/08/30 07:39:00;;;;;;;0.67;0.60;;;15.40;99.90;;;;;;6275091;22;20156;-65
2021/08/30 07:41:27;;;;;;;0.90;0.73;;;14.90;99.90;;;;;;6275434;22;20646;-64
2021/08/30 07:43:53;;;;;;;1.50;0.60;;;15.00;99.90;;;;;;6275296;22;20154;-64
2021/08/30 07:46:20;;;;;;;0.80;0.80;;;15.30;99.90;;;;;;6275429;22;20510;-65
2021/08/30 07:48:47;;;;;;;1.40;1.30;;;15.40;99.90;;;;;;6275303;22;20177;-65
2021/08/30 07:51:12;;;;;;;1.90;1.80;;;15.50;99.90;;;;;;6275422;22;20229;-65
2021/08/30 07:53:40;;;;;;;1.70;1.60;;;15.40;99.90;;;;;;6275092;22;20205;-65
2021/08/30 07:56:06;;;;;;;1.87;1.60;;;15.30;99.90;;;;;;6275683;22;20154;-64
2021/08/30 07:58:31;;;;;;;1.70;1.60;;;15.40;99.90;;;;;;6274719;22;20230;-65
2021/08/30 08:00:57;;;;;;;1.60;1.50;;;15.40;99.90;;;;;;6275404;22;20673;-64
2021/08/30 08:03:22;;;;;;;1.10;1.10;;;15.30;99.90;;;;;;6274989;22;20174;-64
2021/08/30 08:05:48;;;;;;;1.73;1.63;;;15.30;99.90;;;;;;6272279;22;20254;-65
2021/08/30 08:08:14;;;;;;;1.63;1.53;;;15.40;99.90;;;;;;6274582;22;20150;-65
2021/08/30 08:10:39;;;;;;;1.80;1.70;;;15.60;99.90;;;;;;6274442;22;20146;-64
2021/08/30 08:13:05;;;;;;;1.53;1.43;;;15.70;99.90;;;;;;6275101;22;20173;-64
2021/08/30 08:15:31;;;;;;;1.50;1.40;;;15.90;99.90;;;;;;6274512;22;20770;-64
2021/08/30 08:17:56;;;;;;;1.30;1.30;;;16.00;99.90;;;;;;6274917;22;20207;-64
2021/08/30 08:20:22;;;;;;;1.33;1.23;;;15.90;99.90;;;;;;6274877;22;20225;-64
2021/08/30 08:22:48;;;;;;;1.40;1.30;;;15.80;99.90;;;;;;6274592;22;20689;-65
2021/08/30 08:25:13;;;;;;;1.27;1.27;;;15.40;99.90;;;;;;6274689;22;20223;-63
2021/08/30 08:27:40;;;;;;;1.67;1.57;;;15.40;99.90;;;;;;6274779;22;20150;-65
2021/08/30 08:30:07;;;;;;;2.17;2.00;;;15.40;99.90;;;;;;6269819;22;20156;-64
2021/08/30 08:32:33;;;;;;;3.50;3.20;;;15.20;99.90;;;;;;6274134;22;20474;-64
2021/08/30 08:34:58;;;;;;;1.47;1.40;;;15.10;99.90;;;;;;6274457;22;20153;-64
2021/08/30 08:37:24;;;;;;;1.93;1.70;;;15.20;99.90;;;;;;6274263;22;20159;-65
2021/08/30 08:39:49;;;;;;;1.57;1.47;;;15.50;99.90;;;;;;6274560;22;20162;-65
2021/08/30 08:42:15;;;;;;;2.00;0.67;;;15.70;99.90;;;;;;6274013;22;20263;-64
2021/08/30 08:44:41;;;;;;;1.33;0.60;;;16.20;99.90;;;;;;6274915;22;20178;-64
2021/08/30 08:47:08;;;;;;;0.70;0.70;;;16.50;99.90;;;;;;6274467;22;20564;-65
2021/08/30 08:49:34;;;;;;;1.20;1.10;;;16.90;99.90;;;;;;6274626;22;20158;-64
2021/08/30 08:52:01;;;;;;;1.30;1.20;;;17.20;99.90;;;;;;6272756;22;20630;-63
2021/08/30 08:54:29;;;;;;;0.90;0.90;;;17.00;99.90;;;;;;6274713;22;20481;-64
2021/08/30 08:56:55;;;;;;;0.80;0.80;;;17.00;99.90;;;;;;6274600;22;20250;-64
2021/08/30 08:59:20;;;;;;;0.90;0.90;;;17.00;99.90;;;;;;6274724;22;20236;-64
2021/08/30 09:01:57;;;;;;;1.73;1.63;;;16.90;99.90;;;;;;6274476;22;20183;-64
2021/08/30 09:04:30;;;;;;;0.97;0.90;;;16.70;99.90;;;;;;6274852;22;20193;-64
2021/08/30 09:07:10;;;;;;;0.80;0.80;;;16.70;99.90;;;;;;6274951;22;20170;-64
2021/08/30 09:09:40;;;;;;;0.83;0.60;;;16.70;99.90;;;;;;6274679;22;20265;-64
2021/08/30 09:12:19;;;;;;;0.63;0.63;;;16.70;99.90;;;;;;6275089;22;20166;-64
2021/08/30 09:14:45;;;;;;;0.60;0.60;;;17.10;99.90;;;;;;6274978;22;20198;-65
2021/08/30 09:17:10;;;;;;;0.80;0.80;;;17.20;99.90;;;;;;6274657;22;20489;-64
2021/08/30 09:19:38;;;;;;;0.57;0.57;;;17.20;99.90;;;;;;6274334;22;20199;-64
2021/08/30 09:22:05;;;;;;;0.60;0.60;;;17.40;99.90;;;;;;6247347;22;20625;-64
2021/08/30 09:24:32;;;;;;;0.70;0.70;;;17.90;99.90;;;;;;6274645;22;20209;-64
2021/08/30 09:27:05;;;;;;;0.30;0.30;;;17.30;99.90;;;;;;6274551;22;20146;-64
2021/08/30 09:29:33;;;;;;;0.40;0.40;;;17.10;99.90;;;;;;6273871;22;20192;-64
2021/08/30 09:32:16;;;;;;;0.37;0.37;;;17.40;99.90;;;;;;6274269;22;20248;-65
2021/08/30 09:34:47;;;;;;;0.40;0.40;;;17.70;99.90;;;;;;6274560;22;20142;-64
2021/08/30 09:37:19;;;;;;;0.70;0.70;;;17.80;99.90;;;;;;6274348;22;20134;-64
2021/08/30 09:39:54;;;;;;;0.87;0.70;;;17.60;99.90;;;;;;6273985;22;20192;-64
2021/08/30 09:42:20;;;;;;;0.50;0.50;;;17.20;99.90;;;;;;6274204;22;20165;-64
2021/08/30 09:44:45;;;;;;;0.50;0.50;;;17.30;99.90;;;;;;6273931;22;20224;-64
2021/08/30 09:47:25;;;;;;;0.47;0.47;;;17.50;99.90;;;;;;6247242;22;20158;-65
2021/08/30 09:49:52;;;;;;;0.23;0.23;;;17.70;99.90;;;;;;6273686;22;20185;-64
2021/08/30 09:52:20;;;;;;;0.43;0.37;;;17.70;99.90;;;;;;6274071;22;20624;-64
2021/08/30 09:54:46;;;;;;;0.20;0.20;;;18.10;99.90;;;;;;6273799;22;20150;-64
2021/08/30 09:57:13;;;;;;;0.40;0.30;;;18.20;99.90;;;;;;6274104;22;20160;-64
2021/08/30 09:59:39;;;;;;;0.20;0.20;;;18.00;99.90;;;;;;6273577;22;20657;-64
2021/08/30 10:02:06;;;;;;;0.30;0.30;;;18.10;99.90;;;;;;6273978;22;20240;-64
2021/08/30 10:04:33;;;;;;;0.33;0.33;;;17.90;99.90;;;;;;6274074;22;20178;-64
2021/08/30 10:06:59;;;;;;;0.40;0.40;;;18.00;99.90;;;;;;6273732;22;20146;-64
2021/08/30 10:09:27;;;;;;;0.50;0.40;;;18.40;99.90;;;;;;6246488;22;20229;-64
2021/08/30 10:11:54;;;;;;;0.40;0.27;;;18.30;99.90;;;;;;6273599;22;20170;-64
2021/08/30 10:14:22;;;;;;;0.30;0.30;;;18.30;99.90;;;;;;6273932;22;20181;-64
2021/08/30 10:16:49;;;;;;;0.50;0.43;;;18.70;99.90;;;;;;6273563;22;20160;-64
2021/08/30 10:19:29;;;;;;;0.20;0.20;;;19.30;99.90;;;;;;6273778;22;20523;-64
2021/08/30 10:21:56;;;;;;;0.45;0.40;;;20.50;99.90;;;;;;6273814;22;20516;-65
2021/08/30 10:24:21;;;;;;;0.40;0.40;;;21.40;99.90;;;;;;6273713;22;20173;-64
2021/08/30 10:26:48;;;;;;;0.43;0.43;;;21.70;99.90;;;;;;6273644;22;20153;-64
2021/08/30 10:29:15;;;;;;;0.47;0.40;;;22.10;99.90;;;;;;6273245;22;20145;-64
2021/08/30 10:31:51;;;;;;;0.40;0.40;;;22.30;99.90;;;;;;6273797;22;20253;-64
2021/08/30 10:34:29;;;;;;;0.35;0.30;;;22.30;99.90;;;;;;6273457;22;20279;-64
2021/08/30 10:36:56;;;;;;;0.30;0.30;;;21.70;99.90;;;;;;6273624;22;20134;-64
2021/08/30 10:39:52;;;;;;;1.90;0.30;;;21.80;99.90;;;;;;6273374;22;20150;-64
2021/08/30 10:42:18;;;;;;;0.20;0.20;;;22.20;99.90;;;;;;6270342;22;20235;-64
2021/08/30 10:45:01;;;;;;;0.38;0.28;;;22.70;99.90;;;;;;6273534;22;20689;-64
2021/08/30 10:47:34;;;;;;;0.35;0.35;;;22.70;99.90;;;;;;6273270;22;20185;-64
2021/08/30 10:50:00;;;;;;;2.30;2.10;;;22.60;99.90;;;;;;6273590;22;20139;-64
2021/08/30 10:52:39;;;;;;;2.78;2.58;;;22.70;99.90;;;;;;6273320;22;20170;-64
2021/08/30 10:55:17;;;;;;;0.40;0.40;;;22.80;99.90;;;;;;6273408;22;20149;-64
2021/08/30 10:57:50;;;;;;;0.17;0.17;;;22.70;99.90;;;;;;6273386;22;20215;-65
2021/08/30 11:00:16;;;;;;;0.40;0.40;;;23.20;99.90;;;;;;6273617;22;20143;-64
2021/08/30 11:02:48;;;;;;;0.30;0.30;;;23.40;99.90;;;;;;6273003;22;20570;-64
2021/08/30 11:05:18;;;;;;;0.30;0.30;;;23.40;99.90;;;;;;6272989;22;20238;-65
2021/08/30 11:07:51;;;;;;;0.70;0.50;;;23.80;99.90;;;;;;6273820;22;20247;-66
2021/08/30 11:10:16;;;;;;;0.57;0.30;;;24.10;99.90;;;;;;6273199;22;20135;-64
2021/08/30 11:12:42;;;;;;;0.30;0.30;;;24.10;99.90;;;;;;6273681;22;20166;-64
2021/08/30 11:15:08;;;;;;;1.23;0.40;;;24.20;99.90;;;;;;6273567;22;20149;-64
2021/08/30 11:17:36;;;;;;;0.30;0.30;;;24.30;99.90;;;;;;6273233;22;20177;-64
2021/08/30 11:20:03;;;;;;;0.32;0.30;;;24.30;99.90;;;;;;6273143;22;20157;-64
2021/08/30 11:22:29;;;;;;;0.20;0.20;;;24.30;99.90;;;;;;6273597;22;20177;-64
2021/08/30 11:24:54;;;;;;;0.22;0.22;;;24.50;99.90;;;;;;6273022;22;20173;-63
2021/08/30 11:27:28;;;;;;;0.22;0.22;;;24.70;99.90;;;;;;6273460;22;20152;-64
2021/08/30 11:29:56;;;;;;;0.35;0.30;;;24.80;99.90;;;;;;6273018;22;20134;-63
2021/08/30 11:32:24;;;;;;;0.20;0.20;;;24.60;99.90;;;;;;6273013;22;20215;-64
2021/08/30 11:34:50;;;;;;;0.90;0.60;;;24.60;99.90;;;;;;6273147;22;20151;-64
2021/08/30 11:37:19;;;;;;;0.40;0.40;;;24.60;99.90;;;;;;6273652;22;20182;-64
2021/08/30 11:39:50;;;;;;;0.30;0.30;;;25.00;99.90;;;;;;6272962;22;20196;-64
2021/08/30 11:42:18;;;;;;;0.30;0.30;;;25.10;99.90;;;;;;6273489;22;20185;-64
2021/08/30 11:44:44;;;;;;;0.60;0.35;;;25.60;99.90;;;;;;6273115;22;20178;-64
2021/08/30 11:47:13;;;;;;;0.30;0.30;;;26.00;99.90;;;;;;6273098;22;20225;-64
2021/08/30 11:49:47;;;;;;;0.20;0.20;;;27.30;99.90;;;;;;6272967;22;20217;-64
2021/08/30 11:52:20;;;;;;;2.08;0.30;;;28.40;98.30;;;;;;6273285;22;20191;-65
2021/08/30 11:55:06;;;;;;;0.35;0.30;;;28.90;97.70;;;;;;6273240;22;20169;-64
2021/08/30 11:57:48;;;;;;;0.40;0.30;;;30.50;96.10;;;;;;6273030;22;20154;-65
2021/08/30 12:00:23;;;;;;;0.30;0.30;;;30.90;94.90;;;;;;6272909;22;20147;-64
2021/08/30 12:03:00;;;;;;;0.20;0.20;;;30.10;94.80;;;;;;6274434;22;20249;-64
2021/08/30 12:05:32;;;;;;;0.30;0.30;;;29.30;95.70;;;;;;6272933;22;20173;-64
2021/08/30 12:07:59;;;;;;;0.20;0.20;;;29.00;96.40;;;;;;6273312;22;20141;-64
2021/08/30 12:10:27;;;;;;;0.20;0.20;;;29.70;96.70;;;;;;6272870;22;20142;-65
2021/08/30 12:13:07;;;;;;;0.30;0.30;;;31.40;94.00;;;;;;6272911;22;20773;-65
2021/08/30 12:15:34;;;;;;;0.20;0.20;;;32.00;93.30;;;;;;6273509;22;20145;-64
2021/08/30 12:18:01;;;;;;;0.20;0.20;;;32.50;91.70;;;;;;6274107;22;20462;-64
2021/08/30 12:20:34;;;;;;;1.38;0.30;;;32.30;91.70;;;;;;6274856;22;20173;-64
2021/08/30 12:23:02;;;;;;;0.20;0.20;;;32.20;90.90;;;;;;6274574;22;20243;-62
2021/08/30 12:25:43;;;;;;;0.30;0.30;;;33.20;91.50;;;;;;6274687;22;20234;-64
2021/08/30 12:28:13;;;;;;;0.20;0.20;;;33.40;89.00;;;;;;6274957;22;20149;-62
2021/08/30 12:30:42;;;;;;;0.40;0.22;;;33.90;87.00;;;;;;6274423;22;20130;-64
2021/08/30 12:33:10;;;;;;;0.20;0.20;;;32.30;90.10;;;;;;6274900;22;20315;-64
2021/08/30 12:35:41;;;;;;;0.90;0.50;;;30.20;93.00;;;;;;6275056;22;20237;-63
2021/08/30 12:38:16;;;;;;;0.30;0.20;;;28.90;93.80;;;;;;6274650;22;20174;-63
2021/08/30 12:40:48;;;;;;;0.98;0.20;;;28.60;94.50;;;;;;6274520;22;20154;-64
2021/08/30 12:43:15;;;;;;;0.40;0.40;;;28.10;95.20;;;;;;6274458;22;20162;-64
2021/08/30 12:45:41;;;;;;;0.35;0.15;;;27.50;94.20;;;;;;6274747;22;20169;-63
2021/08/30 12:48:08;;;;;;;0.47;0.47;;;27.30;96.80;;;;;;6274435;22;20151;-64
2021/08/30 12:50:35;;;;;;;0.30;0.30;;;28.10;95.90;;;;;;6274373;22;20564;-64
2021/08/30 12:53:01;;;;;;;0.20;0.20;;;29.10;97.30;;;;;;6275031;22;20529;-64
2021/08/30 12:55:26;;;;;;;0.20;0.20;;;29.60;95.40;;;;;;6274521;22;20165;-64